createdAt,value
2019-05-14T00:01:58.361Z,6.60
2019-05-14T00:06:06.615Z,6.60
2019-05-14T00:10:13.645Z,6.70
2019-05-14T00:14:15.519Z,6.80
2019-05-14T00:18:15.918Z,6.80
2019-05-14T00:22:14.526Z,6.80
2019-05-14T00:26:12.986Z,6.70
2019-05-14T00:30:24.129Z,6.60
2019-05-14T00:34:22.670Z,6.50
2019-05-14T00:38:22.560Z,6.40
2019-05-14T00:42:24.409Z,6.50
2019-05-14T00:46:31.467Z,6.50
2019-05-14T00:50:27.775Z,6.50
2019-05-14T00:54:28.703Z,6.40
2019-05-14T00:58:27.201Z,6.40
2019-05-14T01:02:25.669Z,6.40
2019-05-14T01:06:31.843Z,6.30
2019-05-14T01:10:41.802Z,6.30
2019-05-14T01:14:45.437Z,6.20
2019-05-14T01:18:43.904Z,6.20
2019-05-14T01:22:42.463Z,6.20
2019-05-14T01:26:45.761Z,6.10
2019-05-14T01:30:44.282Z,6.10
2019-05-14T01:34:45.503Z,6.00
2019-05-14T01:38:47.079Z,5.90
2019-05-14T01:42:52.235Z,5.90
2019-05-14T01:46:53.587Z,5.80
2019-05-14T01:50:56.260Z,5.70
2019-05-14T01:59:01.470Z,5.60
2019-05-14T02:03:09.316Z,5.60
2019-05-14T02:07:07.915Z,5.50
2019-05-14T02:11:12.141Z,5.50
2019-05-14T02:15:13.754Z,5.40
2019-05-14T02:19:14.445Z,5.30
2019-05-14T02:23:22.637Z,5.20
2019-05-14T02:27:21.546Z,5.20
2019-05-14T02:31:29.199Z,5.10
2019-05-14T02:35:34.482Z,5.00
2019-05-14T02:39:49.902Z,4.90
2019-05-14T02:43:49.922Z,4.80
2019-05-14T02:47:52.168Z,4.80
2019-05-14T02:51:50.967Z,4.80
2019-05-14T02:55:49.969Z,4.70
2019-05-14T02:59:59.700Z,4.50
2019-05-14T03:04:00.905Z,4.50
2019-05-14T03:08:03.596Z,4.50
2019-05-14T03:12:04.136Z,4.40
2019-05-14T03:16:24.938Z,4.40
2019-05-14T03:20:21.699Z,4.30
2019-05-14T03:24:28.739Z,4.20
2019-05-14T03:28:39.850Z,4.20
2019-05-14T03:36:43.354Z,4.10
2019-05-14T03:40:42.575Z,4.40
2019-05-14T03:44:49.511Z,4.80
2019-05-14T03:48:55.081Z,5.00
2019-05-14T03:52:59.424Z,4.90
2019-05-14T03:57:00.244Z,4.80
2019-05-14T04:01:01.129Z,4.70
2019-05-14T04:05:29.251Z,4.60
2019-05-14T04:09:29.495Z,4.50
2019-05-14T04:13:40.656Z,4.50
2019-05-14T04:17:42.293Z,4.50
2019-05-14T04:21:41.198Z,4.50
2019-05-14T04:25:49.865Z,4.60
2019-05-14T04:29:53.741Z,4.60
2019-05-14T04:33:59.256Z,4.70
2019-05-14T04:37:58.853Z,4.70
2019-05-14T04:42:00.003Z,4.70
2019-05-14T04:46:00.861Z,4.80
2019-05-14T04:50:05.141Z,4.80
2019-05-14T04:54:11.633Z,5.00
2019-05-14T04:58:13.691Z,5.20
2019-05-14T05:02:12.150Z,5.30
2019-05-14T05:06:39.517Z,5.40
2019-05-14T05:10:32.148Z,5.50
2019-05-14T05:14:38.777Z,5.60
2019-05-14T05:18:34.296Z,5.70
2019-05-14T05:22:32.836Z,5.80
2019-05-14T05:26:33.211Z,5.90
2019-05-14T05:30:41.161Z,6.00
2019-05-14T05:34:39.203Z,6.10
2019-05-14T05:38:40.512Z,6.20
2019-05-14T05:42:39.012Z,6.20
2019-05-14T05:46:43.194Z,6.30
2019-05-14T05:50:48.281Z,6.40
2019-05-14T05:54:44.304Z,6.50
2019-05-14T05:58:42.763Z,6.60
2019-05-14T06:02:48.937Z,6.60
2019-05-14T06:06:48.216Z,6.70
2019-05-14T06:10:48.933Z,6.90
2019-05-14T06:14:50.502Z,7.10
2019-05-14T06:18:52.378Z,7.30
2019-05-14T06:22:50.852Z,7.40
2019-05-14T06:26:50.408Z,7.70
2019-05-14T06:30:48.925Z,7.80
2019-05-14T06:34:48.944Z,7.90
2019-05-14T06:38:49.478Z,8.10
2019-05-14T06:42:51.190Z,8.20
2019-05-14T06:46:53.483Z,8.20
2019-05-14T06:50:53.058Z,8.30
2019-05-14T06:54:51.560Z,8.30
2019-05-14T06:58:50.028Z,8.30
2019-05-14T07:02:49.114Z,8.40
2019-05-14T07:06:49.693Z,8.50
2019-05-14T07:10:48.675Z,8.70
2019-05-14T07:14:48.160Z,8.80
2019-05-14T07:18:59.098Z,9.00
2019-05-14T07:22:58.612Z,9.20
2019-05-14T07:27:04.081Z,9.40
2019-05-14T07:31:09.224Z,9.50
2019-05-14T07:35:11.021Z,9.70
2019-05-14T07:39:13.264Z,9.90
2019-05-14T07:43:15.756Z,10.30
2019-05-14T07:47:18.655Z,10.50
2019-05-14T07:51:19.142Z,10.50
2019-05-14T07:55:25.794Z,10.60
2019-05-14T07:59:32.183Z,10.80
2019-05-14T08:03:29.537Z,10.90
2019-05-14T08:07:29.922Z,10.90
2019-05-14T08:11:28.787Z,11.00
2019-05-14T08:15:28.387Z,11.10
2019-05-14T08:19:34.289Z,11.10
2019-05-14T08:23:48.040Z,11.20
2019-05-14T08:27:42.190Z,11.40
2019-05-14T08:31:45.356Z,11.40
2019-05-14T08:35:44.268Z,11.50
2019-05-14T08:39:42.848Z,11.50
2019-05-14T08:43:45.798Z,11.60
2019-05-14T08:47:48.336Z,11.80
2019-05-14T08:51:50.320Z,11.90
2019-05-14T08:55:55.177Z,11.90
2019-05-14T08:59:53.798Z,11.90
2019-05-14T09:03:55.914Z,11.90
2019-05-14T09:07:58.205Z,12.00
2019-05-14T09:12:05.464Z,12.00
2019-05-14T09:16:03.999Z,12.10
2019-05-14T09:20:07.197Z,12.50
2019-05-14T09:24:09.591Z,12.60
2019-05-14T09:28:09.065Z,12.70
2019-05-14T09:32:15.284Z,12.70
2019-05-14T09:36:23.869Z,12.90
2019-05-14T09:40:22.744Z,13.10
2019-05-14T09:44:23.117Z,13.20
2019-05-14T09:48:21.665Z,13.40
2019-05-14T09:52:25.280Z,13.60
2019-05-14T09:56:34.015Z,13.90
2019-05-14T10:00:33.329Z,14.00
2019-05-14T10:04:31.855Z,13.60
2019-05-14T10:08:35.244Z,13.50
2019-05-14T10:12:51.782Z,13.30
2019-05-14T10:16:45.301Z,13.50
2019-05-14T10:20:49.088Z,14.30
2019-05-14T10:24:48.326Z,15.00
2019-05-14T10:28:48.494Z,15.20
2019-05-14T10:32:49.293Z,15.50
2019-05-14T10:36:47.304Z,15.60
2019-05-14T10:40:50.735Z,15.30
2019-05-14T10:44:58.639Z,14.80
2019-05-14T10:49:16.648Z,14.10
2019-05-14T10:53:03.352Z,13.70
2019-05-14T10:57:09.602Z,13.60
2019-05-14T11:01:11.351Z,13.40
2019-05-14T11:05:11.274Z,13.70
2019-05-14T11:09:17.945Z,14.20
2019-05-14T11:13:22.599Z,14.70
2019-05-14T11:17:24.177Z,14.80
2019-05-14T11:21:29.866Z,15.00
2019-05-14T11:25:29.059Z,15.50
2019-05-14T11:29:29.599Z,15.90
2019-05-14T11:33:33.920Z,16.20
2019-05-14T11:37:31.605Z,16.50
2019-05-14T11:41:32.935Z,17.20
2019-05-14T11:45:31.398Z,16.90
2019-05-14T11:49:30.402Z,17.10
2019-05-14T11:53:34.575Z,17.80
2019-05-14T11:57:38.179Z,17.80
2019-05-14T12:01:39.062Z,18.00
2019-05-14T12:05:42.076Z,17.90
2019-05-14T12:09:39.751Z,16.80
2019-05-14T12:13:40.410Z,16.00
2019-05-14T12:17:41.269Z,15.40
2019-05-14T12:21:39.990Z,15.80
2019-05-14T12:25:42.538Z,16.40
2019-05-14T12:29:41.024Z,16.90
2019-05-14T12:33:42.664Z,17.30
2019-05-14T12:37:41.681Z,17.60
2019-05-14T12:41:40.210Z,17.40
2019-05-14T12:45:41.578Z,17.10
2019-05-14T12:49:40.065Z,17.50
2019-05-14T12:53:43.547Z,17.50
2019-05-14T12:57:45.403Z,17.10
2019-05-14T13:01:49.271Z,16.90
2019-05-14T13:05:52.404Z,16.90
2019-05-14T13:09:50.354Z,16.90
2019-05-14T13:13:49.238Z,17.10
2019-05-14T13:17:54.615Z,17.30
2019-05-14T13:22:10.015Z,17.40
2019-05-14T13:25:58.988Z,17.30
2019-05-14T13:30:00.617Z,17.10
2019-05-14T13:34:01.136Z,17.20
2019-05-14T13:38:01.774Z,17.50
2019-05-14T13:42:00.392Z,17.70
2019-05-14T13:46:00.694Z,17.00
2019-05-14T13:50:01.254Z,16.70
2019-05-14T13:54:01.909Z,17.60
2019-05-14T13:58:03.371Z,19.20
2019-05-14T14:02:01.913Z,19.30
2019-05-14T14:06:00.810Z,19.80
2019-05-14T14:10:18.396Z,19.70
2019-05-14T14:14:19.910Z,19.80
2019-05-14T14:18:20.826Z,19.40
2019-05-14T14:22:19.369Z,19.40
2019-05-14T14:26:19.753Z,19.20
2019-05-14T14:30:19.638Z,18.70
2019-05-14T14:34:18.373Z,17.80
2019-05-14T14:38:19.743Z,18.80
2019-05-14T14:42:19.580Z,22.40
2019-05-14T14:46:19.522Z,25.20
2019-05-14T14:50:19.356Z,27.60
2019-05-14T14:54:18.288Z,28.20
2019-05-14T14:58:19.857Z,27.30
2019-05-14T15:02:28.575Z,26.90
2019-05-14T15:06:30.536Z,26.40
2019-05-14T15:10:28.638Z,23.60
2019-05-14T15:14:29.767Z,24.90
2019-05-14T15:18:28.854Z,26.30
2019-05-14T15:22:30.907Z,27.70
2019-05-14T15:26:30.969Z,28.70
2019-05-14T15:30:39.662Z,28.80
2019-05-14T15:34:41.277Z,28.70
2019-05-14T15:38:39.979Z,27.50
2019-05-14T15:42:39.843Z,27.20
2019-05-14T15:46:41.737Z,28.00
2019-05-14T15:50:39.086Z,28.80
2019-05-14T15:54:46.361Z,29.70
2019-05-14T15:58:39.775Z,29.90
2019-05-14T16:02:42.649Z,30.30
2019-05-14T16:06:43.691Z,29.30
2019-05-14T16:10:42.213Z,27.40
2019-05-14T16:14:41.213Z,26.30
2019-05-14T16:18:40.350Z,23.20
2019-05-14T16:22:40.257Z,20.70
2019-05-14T16:26:52.904Z,19.90
2019-05-14T16:30:51.429Z,19.50
2019-05-14T16:34:49.908Z,19.40
2019-05-14T16:38:48.493Z,19.40
2019-05-14T16:42:48.556Z,19.10
2019-05-14T16:46:53.405Z,18.90
2019-05-14T16:50:50.999Z,18.80
2019-05-14T16:54:51.129Z,18.50
2019-05-14T16:58:58.190Z,18.40
2019-05-14T17:02:59.037Z,18.20
2019-05-14T17:06:59.782Z,17.60
2019-05-14T17:11:01.982Z,17.00
2019-05-14T17:15:00.736Z,16.50
2019-05-14T17:19:00.934Z,16.10
2019-05-14T17:23:03.855Z,15.70
2019-05-14T17:26:59.725Z,15.40
2019-05-14T17:30:58.276Z,15.30
2019-05-14T17:34:56.802Z,15.30
2019-05-14T17:38:58.699Z,15.10
2019-05-14T17:42:59.182Z,14.80
2019-05-14T17:46:58.695Z,14.60
2019-05-14T17:50:59.019Z,14.40
2019-05-14T17:55:01.145Z,14.40
2019-05-14T17:59:03.736Z,14.60
2019-05-14T18:03:02.362Z,14.60
2019-05-14T18:07:02.585Z,14.50
2019-05-14T18:11:01.929Z,14.30
2019-05-14T18:15:00.707Z,14.10
2019-05-14T18:19:03.650Z,13.90
2019-05-14T18:23:02.197Z,13.90
2019-05-14T18:27:04.036Z,14.00
2019-05-14T18:31:06.023Z,14.00
2019-05-14T18:35:06.019Z,14.00
2019-05-14T18:39:11.217Z,13.90
2019-05-14T18:43:12.632Z,13.70
2019-05-14T18:47:11.158Z,13.50
2019-05-14T18:51:11.886Z,13.30
2019-05-14T18:55:10.772Z,13.00
2019-05-14T18:59:14.162Z,12.80
2019-05-14T19:03:13.116Z,12.70
2019-05-14T19:07:15.592Z,12.50
2019-05-14T19:11:14.055Z,12.70
2019-05-14T19:15:13.334Z,12.80
2019-05-14T19:19:12.398Z,12.70
2019-05-14T19:23:12.949Z,12.40
2019-05-14T19:27:19.715Z,12.10
2019-05-14T19:31:24.856Z,11.70
2019-05-14T19:35:23.430Z,11.50
2019-05-14T19:39:22.025Z,11.20
2019-05-14T19:43:23.775Z,10.90
2019-05-14T19:47:24.426Z,10.70
2019-05-14T19:51:23.936Z,10.60
2019-05-14T19:55:22.407Z,10.50
2019-05-14T19:59:28.636Z,10.40
2019-05-14T20:03:37.511Z,10.30
2019-05-14T20:07:38.787Z,10.10
2019-05-14T20:11:45.028Z,10.00
2019-05-14T20:15:48.471Z,9.90
2019-05-14T20:19:49.555Z,9.90
2019-05-14T20:23:48.310Z,9.70
2019-05-14T20:27:48.009Z,9.70
2019-05-14T20:31:49.027Z,9.60
2019-05-14T20:35:48.744Z,9.60
2019-05-14T20:40:00.425Z,9.40
2019-05-14T20:44:04.666Z,9.20
2019-05-14T20:48:09.686Z,9.10
2019-05-14T20:52:08.742Z,9.00
2019-05-14T20:56:08.307Z,8.90
2019-05-14T21:00:11.337Z,8.80
2019-05-14T21:04:12.531Z,8.80
2019-05-14T21:12:41.837Z,8.50
2019-05-14T21:16:44.928Z,8.30
2019-05-14T21:20:51.416Z,8.10
2019-05-14T21:24:53.149Z,7.90
2019-05-14T21:29:04.463Z,7.80
2019-05-14T21:33:03.024Z,7.70
2019-05-14T21:37:01.639Z,7.70
2019-05-14T21:41:00.276Z,7.60
2019-05-14T21:44:58.830Z,7.50
2019-05-14T21:48:58.565Z,7.40
2019-05-14T21:53:02.702Z,7.30
2019-05-14T21:57:01.469Z,7.10
2019-05-14T22:01:02.146Z,6.90
2019-05-14T22:05:02.635Z,6.90
2019-05-14T22:09:05.800Z,6.80
2019-05-14T22:13:04.524Z,6.60
2019-05-14T22:17:07.880Z,6.60
2019-05-14T22:21:05.807Z,6.60
2019-05-14T22:25:07.192Z,6.60
2019-05-14T22:29:08.147Z,6.50
2019-05-14T22:33:09.444Z,6.30
2019-05-14T22:37:08.069Z,6.20
2019-05-14T22:41:12.849Z,6.00
2019-05-14T22:45:13.403Z,5.90
2019-05-14T22:49:14.982Z,5.80
2019-05-14T22:53:14.020Z,5.70
2019-05-14T22:57:13.021Z,5.70
2019-05-14T23:01:18.415Z,5.70
2019-05-14T23:05:16.510Z,5.60
2019-05-14T23:09:19.069Z,5.60
2019-05-14T23:13:18.597Z,5.60
2019-05-14T23:17:20.715Z,5.60
2019-05-14T23:21:19.274Z,5.40
2019-05-14T23:25:18.464Z,5.30
2019-05-14T23:29:17.318Z,5.10
2019-05-14T23:33:18.898Z,5.10
2019-05-14T23:37:18.144Z,5.10
2019-05-14T23:41:25.486Z,5.20
2019-05-14T23:45:23.328Z,5.20
2019-05-14T23:49:21.905Z,5.10
2019-05-14T23:53:25.120Z,4.90
2019-05-14T23:57:28.839Z,4.80
